createdAt,value
2022-08-02T00:00:14.076Z,80.61
2022-08-02T00:02:15.749Z,80.87
2022-08-02T00:04:16.895Z,81.67
2022-08-02T00:06:18.311Z,81.58
2022-08-02T00:08:19.783Z,81.4
2022-08-02T00:10:21.084Z,81.13
2022-08-02T00:12:22.606Z,80.39
2022-08-02T00:14:23.942Z,80.29
2022-08-02T00:16:37.368Z,80.66
2022-08-02T00:18:26.885Z,80.45
2022-08-02T00:20:28.267Z,81.05
2022-08-02T00:24:31.223Z,81.27
2022-08-02T00:26:32.052Z,81.86
2022-08-02T00:28:33.292Z,82
2022-08-02T00:30:34.340Z,82.19
2022-08-02T00:34:37.949Z,83.91
2022-08-02T00:36:38.705Z,83.84
2022-08-02T00:38:39.756Z,84.15
2022-08-02T00:40:40.980Z,84.54
2022-08-02T00:42:42.164Z,84.46
2022-08-02T00:44:43.889Z,84.28
2022-08-02T00:46:45.754Z,84.51
2022-08-02T00:48:47.043Z,85.12
2022-08-02T00:50:48.378Z,84.42
2022-08-02T00:52:50.254Z,84.14
2022-08-02T00:54:51.213Z,84.22
2022-08-02T00:56:52.120Z,84.33
2022-08-02T00:58:53.134Z,83.68
2022-08-02T01:00:54.307Z,83.84
2022-08-02T01:02:55.340Z,83.68
2022-08-02T01:04:56.617Z,83.48
2022-08-02T01:06:57.525Z,83.59
2022-08-02T01:08:59.383Z,83.16
2022-08-02T01:11:00.835Z,83.18
2022-08-02T01:13:02.359Z,83.33
2022-08-02T01:17:04.623Z,84.07
2022-08-02T01:19:06.058Z,84.31
2022-08-02T01:21:07.465Z,84.33
2022-08-02T01:23:09.267Z,84.88
2022-08-02T01:25:10.576Z,84.8
2022-08-02T01:27:11.594Z,84.64
2022-08-02T01:29:13.456Z,84.88
2022-08-02T01:31:15.322Z,85.26
2022-08-02T01:33:16.753Z,85.36
2022-08-02T01:35:18.529Z,85.17
2022-08-02T01:37:19.562Z,84.96
2022-08-02T01:39:26.534Z,85.64
2022-08-02T01:41:21.863Z,86.66
2022-08-02T01:43:23.444Z,86.94
2022-08-02T01:45:24.413Z,87.31
2022-08-02T01:49:27.503Z,86.76
2022-08-02T01:51:29.035Z,86.79
2022-08-02T01:53:30.817Z,87.87
2022-08-02T01:55:33.570Z,88.1
2022-08-02T01:57:34.111Z,87.82
2022-08-02T01:59:35.632Z,87.46
2022-08-02T02:01:37.488Z,87.41
2022-08-02T02:03:41.503Z,87.51
2022-08-02T02:05:40.437Z,87.25
2022-08-02T02:07:41.722Z,87.29
2022-08-02T02:09:47.695Z,88.27
2022-08-02T02:12:03.339Z,87.85
2022-08-02T02:13:46.031Z,88.07
2022-08-02T02:15:47.703Z,88
2022-08-02T02:17:50.425Z,89.01
2022-08-02T02:19:51.316Z,89.24
2022-08-02T02:21:52.597Z,88.88
2022-08-02T02:23:53.869Z,88.7
2022-08-02T02:25:55.786Z,88.69
2022-08-02T02:27:56.494Z,88.75
2022-08-02T02:32:00.109Z,88.54
2022-08-02T02:34:01.404Z,88.77
2022-08-02T02:36:02.942Z,88.91
2022-08-02T02:38:04.443Z,88.77
2022-08-02T02:40:05.624Z,88.87
2022-08-02T02:42:07.297Z,88.94
2022-08-02T02:44:09.028Z,89.05
2022-08-02T02:48:11.033Z,89.46
2022-08-02T02:50:12.049Z,89.2
2022-08-02T02:52:13.740Z,89.13
2022-08-02T02:54:26.582Z,88.94
2022-08-02T02:56:16.050Z,89.06
2022-08-02T02:58:17.597Z,88.88
2022-08-02T03:00:19.158Z,88.77
2022-08-02T03:02:20.940Z,88.93
2022-08-02T03:04:22.209Z,88.72
2022-08-02T03:06:23.733Z,88.8
2022-08-02T03:08:25.021Z,89.16
2022-08-02T03:10:26.158Z,87.95
2022-08-02T03:14:29.127Z,87.85
2022-08-02T03:16:30.529Z,87.75
2022-08-02T03:20:33.353Z,86.83
2022-08-02T03:22:34.635Z,86.9
2022-08-02T03:24:36.080Z,87.6
2022-08-02T03:26:37.651Z,87.81
2022-08-02T03:28:39.201Z,87.86
2022-08-02T03:30:40.445Z,88.39
2022-08-02T03:32:41.538Z,89.01
2022-08-02T03:34:42.697Z,89.01
2022-08-02T03:36:43.811Z,89
2022-08-02T03:38:45.173Z,88.97
2022-08-02T03:40:46.270Z,88.89
2022-08-02T03:42:47.743Z,88.94
2022-08-02T03:44:50.881Z,89.16
2022-08-02T03:46:54.082Z,89.66
2022-08-02T03:47:43.046Z,89.61
2022-08-02T03:49:44.870Z,90.17
2022-08-02T03:51:45.800Z,90.44
2022-08-02T03:53:47.536Z,90.76
2022-08-02T03:55:49.063Z,90.75
2022-08-02T03:57:50.727Z,90.58
2022-08-02T03:59:52.291Z,90.75
2022-08-02T04:01:53.900Z,90.73
2022-08-02T04:03:55.403Z,90.63
2022-08-02T04:05:59.441Z,90.49
2022-08-02T04:08:02.877Z,90.49
2022-08-02T04:09:59.667Z,90.46
2022-08-02T04:12:01.315Z,90.42
2022-08-02T04:14:02.687Z,90.34
2022-08-02T04:16:03.850Z,90.34
2022-08-02T04:18:05.365Z,90.28
2022-08-02T04:20:06.251Z,90.26
2022-08-02T04:22:07.918Z,90.53
2022-08-02T04:24:10.642Z,90.91
2022-08-02T04:26:11.060Z,91
2022-08-02T04:28:16.157Z,90.84
2022-08-02T04:30:14.505Z,90.89
2022-08-02T04:34:17.061Z,90.87
2022-08-02T04:36:30.711Z,90.54
2022-08-02T04:40:20.747Z,90.5
2022-08-02T04:42:21.772Z,90.65
2022-08-02T04:44:22.899Z,91.17
2022-08-02T04:46:23.981Z,91.4
2022-08-02T04:50:26.628Z,90.83
2022-08-02T04:52:27.682Z,90.09
2022-08-02T04:54:28.638Z,90.43
2022-08-02T04:56:29.720Z,90.3
2022-08-02T04:58:40.242Z,89.7
2022-08-02T05:00:31.902Z,89.68
2022-08-02T05:02:33.683Z,89.55
2022-08-02T05:04:35.470Z,89.81
2022-08-02T05:06:37.337Z,90
2022-08-02T05:08:38.606Z,90.31
2022-08-02T05:10:40.417Z,90.24
2022-08-02T05:12:41.779Z,90.24
2022-08-02T05:14:43.358Z,89.94
2022-08-02T05:16:44.678Z,89.64
2022-08-02T05:20:47.844Z,88.18
2022-08-02T05:22:49.269Z,87.14
2022-08-02T05:24:50.762Z,86.64
2022-08-02T05:26:52.201Z,82.78
2022-08-02T05:28:53.729Z,80.76
2022-08-02T05:30:55.534Z,81.29
2022-08-02T05:32:56.526Z,79.09
2022-08-02T05:34:57.876Z,78.75
2022-08-02T05:36:58.737Z,79.16
2022-08-02T05:39:04.874Z,76.82
2022-08-02T05:41:00.972Z,76.11
2022-08-02T05:43:02.278Z,75.82
2022-08-02T05:45:03.943Z,76.85
2022-08-02T05:47:05.063Z,79.56
2022-08-02T05:49:06.585Z,79.48
2022-08-02T05:51:07.769Z,79.72
2022-08-02T05:53:08.774Z,80.07
2022-08-02T05:55:10.151Z,79.8
2022-08-02T05:57:10.930Z,79.77
2022-08-02T05:59:12.355Z,77.24
2022-08-02T06:01:13.250Z,76.07
2022-08-02T06:05:15.748Z,74.21
2022-08-02T06:07:16.832Z,73.74
2022-08-02T06:09:23.022Z,74.03
2022-08-02T06:11:19.240Z,72.84
2022-08-02T06:15:21.847Z,73.86
2022-08-02T06:17:22.855Z,72.2
2022-08-02T06:19:24.612Z,72.24
2022-08-02T06:22:30.949Z,71
2022-08-02T06:23:27.561Z,70.78
2022-08-02T06:25:48.610Z,71.26
2022-08-02T06:27:29.837Z,68.27
2022-08-02T06:29:34.430Z,70.62
2022-08-02T06:31:32.909Z,69.9
2022-08-02T06:33:34.101Z,70.62
2022-08-02T06:35:35.729Z,68.58
2022-08-02T06:37:37.009Z,65.46
2022-08-02T06:39:37.971Z,65.53
2022-08-02T06:41:38.832Z,65.15
2022-08-02T06:43:40.289Z,64.55
2022-08-02T06:45:41.316Z,65.25
2022-08-02T06:47:44.012Z,64.72
2022-08-02T06:49:51.165Z,65.25
2022-08-02T06:51:46.256Z,66.89
2022-08-02T06:53:47.242Z,66.5
2022-08-02T06:55:48.412Z,64.55
2022-08-02T06:57:49.540Z,64.26
2022-08-02T06:59:51.180Z,66.19
2022-08-02T07:03:53.170Z,64.61
2022-08-02T07:05:54.241Z,64.69
2022-08-02T07:07:55.881Z,63.83
2022-08-02T07:10:00.993Z,66.33
2022-08-02T07:13:58.585Z,63.73
2022-08-02T07:16:00.155Z,63.63
2022-08-02T07:18:01.025Z,63.03
2022-08-02T07:20:01.863Z,63.75
2022-08-02T07:22:02.779Z,63.39
2022-08-02T07:24:04.343Z,62.01
2022-08-02T07:26:06.093Z,62.67
2022-08-02T07:28:07.560Z,64.44
2022-08-02T07:30:08.929Z,65.64
2022-08-02T07:32:10.611Z,64.75
2022-08-02T07:34:12.214Z,62.39
2022-08-02T07:36:16.749Z,61.89
2022-08-02T07:38:14.230Z,60
2022-08-02T07:40:19.662Z,60.52
2022-08-02T07:42:16.404Z,58.89
2022-08-02T07:46:19.631Z,58.84
2022-08-02T07:48:21.000Z,59.46
2022-08-02T07:50:22.599Z,58.82
2022-08-02T07:52:24.082Z,59.33
2022-08-02T07:56:26.678Z,58.61
2022-08-02T07:58:27.768Z,58.22
2022-08-02T08:00:29.322Z,56.45
2022-08-02T08:02:30.778Z,57.24
2022-08-02T08:04:32.038Z,54.48
2022-08-02T08:06:33.314Z,54.74
2022-08-02T08:08:34.996Z,57.2
2022-08-02T08:10:36.156Z,55.17
2022-08-02T08:12:37.174Z,55.68
2022-08-02T08:14:38.715Z,55.47
2022-08-02T08:16:39.921Z,54.23
2022-08-02T08:18:41.295Z,53.01
2022-08-02T08:20:42.905Z,48.74
2022-08-02T08:22:44.081Z,49.66
2022-08-02T08:24:45.164Z,50.48
2022-08-02T08:26:46.476Z,48.74
2022-08-02T08:28:47.993Z,48.06
2022-08-02T08:30:48.902Z,50.16
2022-08-02T08:32:50.426Z,51.13
2022-08-02T08:34:51.764Z,52.15
2022-08-02T08:36:52.632Z,51.31
2022-08-02T08:38:53.530Z,49.64
2022-08-02T08:40:55.281Z,49.66
2022-08-02T08:44:58.769Z,49.83
2022-08-02T08:46:59.295Z,51.16
2022-08-02T08:49:00.643Z,51.14
2022-08-02T08:51:01.495Z,50.01
2022-08-02T08:55:03.642Z,47.68
2022-08-02T08:57:04.918Z,47.43
2022-08-02T08:59:05.919Z,48.94
2022-08-02T09:01:07.119Z,48.17
2022-08-02T09:03:08.308Z,49.09
2022-08-02T09:05:09.085Z,48.96
2022-08-02T09:07:10.534Z,47.27
2022-08-02T09:09:11.710Z,46.83
2022-08-02T09:13:31.135Z,47.54
2022-08-02T09:15:16.057Z,48.02
2022-08-02T09:17:16.208Z,48.28
2022-08-02T09:19:16.946Z,50.15
2022-08-02T09:21:18.378Z,49.1
2022-08-02T09:23:19.767Z,49.54
2022-08-02T09:27:22.476Z,47.77
2022-08-02T09:29:23.401Z,49.53
2022-08-02T09:31:24.494Z,48.43
2022-08-02T09:33:26.202Z,46.45
2022-08-02T09:35:27.897Z,48.06
2022-08-02T09:37:29.058Z,46.82
2022-08-02T09:39:30.629Z,47.27
2022-08-02T09:41:31.868Z,45.79
2022-08-02T09:43:32.632Z,46.1
2022-08-02T09:45:34.161Z,46.53
2022-08-02T09:47:37.103Z,45.28
2022-08-02T09:49:36.425Z,45.62
2022-08-02T09:51:37.742Z,46.61
2022-08-02T09:53:38.489Z,47.61
2022-08-02T09:57:41.422Z,44.29
2022-08-02T09:59:42.743Z,44.65
2022-08-02T10:01:47.005Z,44.81
2022-08-02T10:03:45.178Z,43.89
2022-08-02T10:05:52.848Z,43.14
2022-08-02T10:07:47.045Z,45.35
2022-08-02T10:09:47.851Z,45.78
2022-08-02T10:11:49.613Z,45.69
2022-08-02T10:13:51.105Z,46.61
2022-08-02T10:15:52.073Z,43.74
2022-08-02T10:17:52.964Z,42.89
2022-08-02T10:19:59.860Z,44.11
2022-08-02T10:21:55.446Z,42.9
2022-08-02T10:23:56.600Z,42.22
2022-08-02T10:25:58.187Z,42.44
2022-08-02T10:28:05.038Z,42.3
2022-08-02T10:30:00.774Z,42.19
2022-08-02T10:32:45.916Z,40.9
2022-08-02T10:34:51.167Z,42.64
2022-08-02T10:36:48.848Z,41.77
2022-08-02T10:38:49.825Z,41.71
2022-08-02T10:40:50.664Z,42.47
2022-08-02T10:42:51.700Z,41.96
2022-08-02T10:46:54.140Z,42.91
2022-08-02T10:48:55.436Z,42.67
2022-08-02T10:50:56.731Z,41.29
2022-08-02T10:52:58.048Z,42.66
2022-08-02T10:54:58.849Z,41.37
2022-08-02T10:57:01.226Z,40.57
2022-08-02T10:59:01.910Z,40.07
2022-08-02T11:01:03.384Z,40.57
2022-08-02T11:03:04.406Z,40.65
2022-08-02T11:05:05.166Z,38.62
2022-08-02T11:07:06.505Z,39.02
2022-08-02T11:09:07.481Z,40.19
2022-08-02T11:11:08.663Z,40.43
2022-08-02T11:13:09.875Z,39.64
2022-08-02T11:15:10.872Z,40.15
2022-08-02T11:19:12.856Z,39.65
2022-08-02T11:21:14.057Z,40.78
2022-08-02T11:23:15.252Z,41.06
2022-08-02T11:25:16.117Z,40.7
2022-08-02T11:29:18.393Z,40.87
2022-08-02T11:31:19.733Z,40.38
2022-08-02T11:33:21.244Z,38.88
2022-08-02T11:35:22.815Z,38.8
2022-08-02T11:37:23.724Z,39.01
2022-08-02T11:39:25.175Z,39.37
2022-08-02T11:41:45.794Z,40.57
2022-08-02T11:43:27.590Z,37.69
2022-08-02T11:45:29.830Z,39.33
2022-08-02T11:47:29.667Z,37.17
2022-08-02T11:49:30.726Z,37.49
2022-08-02T11:51:31.885Z,37.77
2022-08-02T11:53:33.400Z,35.21
2022-08-02T11:55:34.768Z,35.01
2022-08-02T11:58:01.598Z,34.49
2022-08-02T12:01:46.068Z,34.86
2022-08-02T12:03:39.121Z,34.56
2022-08-02T12:06:04.285Z,35.86
2022-08-02T12:07:45.500Z,34.8
2022-08-02T12:11:44.250Z,36.16
2022-08-02T12:13:45.231Z,35.1
2022-08-02T12:15:46.879Z,35.58
2022-08-02T12:17:48.226Z,37.44
2022-08-02T12:19:49.295Z,33.75
2022-08-02T12:21:50.373Z,33.84
2022-08-02T12:23:57.212Z,34.23
2022-08-02T12:25:53.013Z,34.17
2022-08-02T12:27:54.098Z,35.29
2022-08-02T12:31:58.087Z,34.89
2022-08-02T12:33:57.544Z,34.02
2022-08-02T12:35:59.095Z,35.67
2022-08-02T12:38:00.419Z,35.51
2022-08-02T12:40:01.263Z,34.11
2022-08-02T12:42:02.223Z,34.03
2022-08-02T12:44:03.954Z,34.32
2022-08-02T12:46:05.293Z,36.97
2022-08-02T12:48:06.719Z,35.06
2022-08-02T12:50:08.169Z,36.9
2022-08-02T12:52:08.957Z,37.61
2022-08-02T12:54:10.328Z,37.82
2022-08-02T12:56:12.022Z,35.91
2022-08-02T12:58:13.033Z,35.21
2022-08-02T13:00:13.861Z,35.07
2022-08-02T13:02:14.940Z,35.87
2022-08-02T13:04:16.472Z,36.45
2022-08-02T13:06:32.281Z,36.33
2022-08-02T13:10:20.512Z,36.09
2022-08-02T13:12:21.536Z,35.49
2022-08-02T13:14:22.559Z,35.02
2022-08-02T13:16:30.434Z,34.39
2022-08-02T13:18:25.039Z,33.07
2022-08-02T13:20:25.926Z,33.71
2022-08-02T13:22:26.738Z,33.6
2022-08-02T13:24:37.674Z,32.18
2022-08-02T13:26:31.468Z,32.72
2022-08-02T13:28:31.563Z,31.81
2022-08-02T13:30:32.657Z,32.23
2022-08-02T13:32:34.374Z,32.79
2022-08-02T13:34:35.381Z,31.77
2022-08-02T13:36:36.138Z,32.19
2022-08-02T13:38:37.311Z,31.13
2022-08-02T13:42:39.592Z,30.87
2022-08-02T13:44:41.312Z,32.01
2022-08-02T13:46:44.942Z,31.15
2022-08-02T13:48:43.420Z,32.12
2022-08-02T13:50:44.733Z,32.9
2022-08-02T13:52:45.903Z,31.32
2022-08-02T13:54:47.406Z,31.3
2022-08-02T13:56:48.764Z,31.57
2022-08-02T13:58:49.595Z,30.69
2022-08-02T14:00:51.036Z,31.8
2022-08-02T14:02:53.158Z,31.5
2022-08-02T14:04:54.683Z,31.74
2022-08-02T14:08:57.093Z,30.95
2022-08-02T14:10:58.594Z,31.02
2022-08-02T14:12:59.656Z,31.32
2022-08-02T14:15:00.559Z,31.22
2022-08-02T14:19:03.518Z,30.6
2022-08-02T14:21:05.234Z,29.75
2022-08-02T14:23:06.773Z,29.73
2022-08-02T14:25:08.878Z,30.21
2022-08-02T14:27:08.594Z,30.56
2022-08-02T14:29:09.845Z,30.14
2022-08-02T14:31:11.660Z,31.07
2022-08-02T14:33:12.536Z,29.8
2022-08-02T14:35:14.164Z,31.73
2022-08-02T14:37:15.783Z,31.41
2022-08-02T14:39:17.265Z,31.16
2022-08-02T14:41:18.959Z,30.62
2022-08-02T14:43:20.486Z,31.03
2022-08-02T14:45:21.548Z,30.59
2022-08-02T14:47:22.836Z,29.83
2022-08-02T14:49:24.913Z,30.76
2022-08-02T14:51:24.989Z,29.73
2022-08-02T14:53:26.482Z,29.54
2022-08-02T14:55:28.085Z,29.95
2022-08-02T14:57:29.698Z,30.43
2022-08-02T14:59:30.998Z,30.28
2022-08-02T15:01:32.427Z,30.13
2022-08-02T15:03:33.209Z,30.73
2022-08-02T15:05:34.492Z,31.09
2022-08-02T15:07:38.237Z,31.26
2022-08-02T15:09:39.633Z,31.6
2022-08-02T15:11:46.908Z,30.95
2022-08-02T15:13:41.106Z,31.73
2022-08-02T15:15:43.438Z,30.96
2022-08-02T15:17:41.591Z,30.75
2022-08-02T15:19:57.197Z,31.51
2022-08-02T15:23:45.699Z,31.45
2022-08-02T15:25:46.514Z,32.56
2022-08-02T15:27:47.452Z,31.27
2022-08-02T15:29:49.115Z,30.69
2022-08-02T15:33:52.704Z,30.56
2022-08-02T15:35:54.131Z,29.26
2022-08-02T15:37:55.375Z,30.63
2022-08-02T15:39:56.440Z,30.27
2022-08-02T15:41:57.963Z,30.49
2022-08-02T15:44:00.444Z,29.88
2022-08-02T15:45:59.802Z,29.42
2022-08-02T15:48:01.385Z,29.43
2022-08-02T15:50:03.101Z,32.08
2022-08-02T15:52:04.176Z,30.65
2022-08-02T15:54:05.137Z,30.93
2022-08-02T15:56:11.063Z,30.44
2022-08-02T15:58:07.613Z,29.77
2022-08-02T16:00:17.784Z,31.71
2022-08-02T16:02:10.133Z,31.38
2022-08-02T16:04:11.211Z,31.57
2022-08-02T16:06:12.184Z,31.92
2022-08-02T16:08:13.415Z,31.84
2022-08-02T16:10:14.271Z,32.41
2022-08-02T16:12:15.827Z,32.16
2022-08-02T16:14:17.059Z,31.75
2022-08-02T16:16:18.692Z,32.41
2022-08-02T16:18:19.831Z,33.36
2022-08-02T16:22:22.254Z,31.18
2022-08-02T16:24:23.399Z,31.2
2022-08-02T16:26:24.614Z,31.32
2022-08-02T16:28:25.681Z,30.75
2022-08-02T16:32:28.153Z,30.91
2022-08-02T16:34:40.233Z,30.59
2022-08-02T16:36:30.541Z,30.57
2022-08-02T16:38:31.450Z,31.59
2022-08-02T16:40:32.296Z,31.75
2022-08-02T16:42:33.681Z,31.72
2022-08-02T16:44:34.895Z,32.58
2022-08-02T16:46:36.621Z,31.27
2022-08-02T16:48:37.878Z,31.23
2022-08-02T16:50:38.801Z,31.76
2022-08-02T16:52:40.399Z,31.66
2022-08-02T16:54:41.249Z,32.13
2022-08-02T16:56:42.670Z,32.22
2022-08-02T16:58:44.936Z,31.45
2022-08-02T17:00:46.376Z,31.59
2022-08-02T17:04:48.135Z,31.77
2022-08-02T17:06:51.842Z,33.06
2022-08-02T17:08:54.315Z,32.07
2022-08-02T17:10:51.620Z,32.55
2022-08-02T17:14:54.736Z,32.71
2022-08-02T17:16:56.120Z,33.01
2022-08-02T17:18:57.238Z,33.5
2022-08-02T17:19:40.924Z,32.97
2022-08-02T17:21:41.903Z,33.39
2022-08-02T17:23:47.440Z,33.36
2022-08-02T17:25:44.336Z,34.44
2022-08-02T17:27:45.087Z,34.47
2022-08-02T17:29:46.117Z,33.91
2022-08-02T17:32:02.652Z,33.58
2022-08-02T17:33:48.297Z,34.04
2022-08-02T17:35:52.567Z,34.21
2022-08-02T17:37:54.491Z,34.16
2022-08-02T17:39:52.094Z,35.37
2022-08-02T17:41:52.629Z,35.06
2022-08-02T17:43:54.027Z,35.26
2022-08-02T17:45:59.486Z,35.7
2022-08-02T17:48:04.100Z,35.64
2022-08-02T17:49:57.539Z,36.01
2022-08-02T17:52:16.395Z,35.84
2022-08-02T17:53:59.987Z,36.36
2022-08-02T17:56:01.583Z,36.51
2022-08-02T17:58:02.923Z,37.25
2022-08-02T18:00:04.828Z,37.17
2022-08-02T18:02:05.964Z,37.14
2022-08-02T18:04:07.512Z,36.4
2022-08-02T18:08:09.615Z,37.27
2022-08-02T18:10:10.998Z,38.04
2022-08-02T18:12:12.842Z,37.79
2022-08-02T18:14:13.516Z,38.62
2022-08-02T18:16:21.027Z,38.63
2022-08-02T18:18:16.271Z,38.88
2022-08-02T18:20:17.218Z,39.68
2022-08-02T18:22:18.874Z,39.9
2022-08-02T18:24:19.808Z,40
2022-08-02T18:28:22.503Z,41.18
2022-08-02T18:30:23.305Z,41.39
2022-08-02T18:33:54.146Z,41.5
2022-08-02T18:34:26.513Z,41.27
2022-08-02T18:36:27.849Z,41.88
2022-08-02T18:38:29.154Z,41.59
2022-08-02T18:40:30.550Z,42.22
2022-08-02T18:42:32.324Z,42.59
2022-08-02T18:44:33.906Z,42.01
2022-08-02T18:46:34.882Z,43.1
2022-08-02T18:48:35.979Z,44.45
2022-08-02T18:50:37.221Z,44.04
2022-08-02T18:52:38.401Z,45.66
2022-08-02T18:56:47.061Z,45.49
2022-08-02T18:58:42.690Z,45.58
2022-08-02T19:00:44.215Z,45.38
2022-08-02T19:02:45.101Z,45.46
2022-08-02T19:06:47.358Z,45.09
2022-08-02T19:09:05.128Z,45.41
2022-08-02T19:10:50.545Z,45.67
2022-08-02T19:12:52.204Z,45.79
2022-08-02T19:14:53.104Z,46.45
2022-08-02T19:16:54.884Z,46.67
2022-08-02T19:18:56.586Z,46.4
2022-08-02T19:21:03.037Z,46.53
2022-08-02T19:22:58.736Z,46.17
2022-08-02T19:25:00.134Z,47.09
2022-08-02T19:27:04.785Z,47.55
2022-08-02T19:29:02.230Z,48.44
2022-08-02T19:31:03.910Z,48.44
2022-08-02T19:33:09.163Z,48.5
2022-08-02T19:35:15.482Z,49.86
2022-08-02T19:37:08.066Z,50.43
2022-08-02T19:39:09.504Z,50.69
2022-08-02T19:41:10.798Z,50.82
2022-08-02T19:44:22.499Z,50.88
2022-08-02T19:45:13.972Z,50.83
2022-08-02T19:49:20.359Z,50.72
2022-08-02T19:51:50.223Z,51.05
2022-08-02T19:53:19.737Z,51.98
2022-08-02T19:55:58.951Z,52.53
2022-08-02T19:57:23.234Z,52.96
2022-08-02T19:59:24.147Z,53.12
2022-08-02T20:01:28.342Z,53.24
2022-08-02T20:03:39.912Z,53.91
2022-08-02T20:05:28.054Z,53.27
2022-08-02T20:07:40.682Z,54.28
2022-08-02T20:09:33.092Z,54.65
2022-08-02T20:11:34.337Z,54.01
2022-08-02T20:13:34.632Z,54.73
2022-08-02T20:15:51.963Z,54.73
2022-08-02T20:17:36.121Z,54.68
2022-08-02T20:21:42.022Z,54.42
2022-08-02T20:23:40.002Z,55.79
2022-08-02T20:25:45.162Z,55.7
2022-08-02T20:27:51.325Z,55.11
2022-08-02T20:29:44.941Z,55.16
2022-08-02T20:31:45.159Z,54.92
2022-08-02T20:33:55.603Z,56.15
2022-08-02T20:35:47.798Z,57.51
2022-08-02T20:37:56.613Z,57.55
2022-08-02T20:39:51.175Z,57.92
2022-08-02T20:41:57.159Z,58.29
2022-08-02T20:43:53.912Z,58.64
2022-08-02T20:45:55.791Z,59.41
2022-08-02T20:47:56.682Z,60.12
2022-08-02T20:49:58.267Z,60.45
2022-08-02T20:54:00.840Z,58.79
2022-08-02T20:56:02.064Z,59.4
2022-08-02T20:58:03.547Z,58.29
2022-08-02T21:00:04.730Z,58.23
2022-08-02T21:04:10.467Z,59.14
2022-08-02T21:06:09.087Z,58.81
2022-08-02T21:08:13.903Z,58.95
2022-08-02T21:10:11.426Z,59.25
2022-08-02T21:12:12.882Z,59.2
2022-08-02T21:14:14.052Z,59.42
2022-08-02T21:16:18.236Z,59.79
2022-08-02T21:20:17.203Z,61.31
2022-08-02T21:22:18.952Z,61.93
2022-08-02T21:24:24.566Z,62.4
2022-08-02T21:26:25.813Z,61.46
2022-08-02T21:28:23.846Z,61.12
2022-08-02T21:30:25.425Z,61.12
2022-08-02T21:32:26.378Z,61.74
2022-08-02T21:34:27.924Z,62.96
2022-08-02T21:36:30.295Z,63.51
2022-08-02T21:38:35.366Z,63.52
2022-08-02T21:40:30.977Z,63.96
2022-08-02T21:42:32.801Z,64.04
2022-08-02T21:44:34.258Z,64.31
2022-08-02T21:46:35.789Z,64.7
2022-08-02T21:48:37.286Z,65.16
2022-08-02T21:50:38.375Z,65.69
2022-08-02T21:52:39.612Z,66.58
2022-08-02T21:54:41.141Z,67.23
2022-08-02T21:56:42.781Z,67.38
2022-08-02T21:58:44.355Z,67.82
2022-08-02T22:02:47.777Z,66.82
2022-08-02T22:04:49.167Z,66.62
2022-08-02T22:06:50.807Z,66.23
2022-08-02T22:08:52.294Z,65.72
2022-08-02T22:10:53.405Z,65.31
2022-08-02T22:12:54.666Z,65.77
2022-08-02T22:14:56.298Z,66.25
2022-08-02T22:18:59.650Z,66.48
2022-08-02T22:21:00.601Z,67.62
2022-08-02T22:23:01.716Z,68.34
2022-08-02T22:25:04.096Z,68.47
2022-08-02T22:27:04.429Z,68.79
2022-08-02T22:29:05.904Z,68.27
2022-08-02T22:31:07.521Z,68.56
2022-08-02T22:33:14.866Z,67.62
2022-08-02T22:35:10.102Z,68.12
2022-08-02T22:38:14.497Z,67.23
2022-08-02T22:39:18.942Z,67.04
2022-08-02T22:41:15.096Z,67.15
2022-08-02T22:45:17.144Z,66.95
2022-08-02T22:47:18.578Z,67.25
2022-08-02T22:49:37.546Z,67.03
2022-08-02T22:51:21.629Z,66.36
2022-08-02T22:53:24.799Z,65.9
2022-08-02T22:55:24.004Z,66.64
2022-08-02T22:57:30.218Z,67.64
2022-08-02T22:59:35.811Z,67.83
2022-08-02T23:01:27.753Z,67.98
2022-08-02T23:03:29.459Z,68.82
2022-08-02T23:05:30.869Z,69.1
2022-08-02T23:07:36.110Z,68.98
2022-08-02T23:09:32.996Z,68.43
2022-08-02T23:11:34.237Z,68.54
2022-08-02T23:15:37.410Z,69.87
2022-08-02T23:17:38.828Z,69.34
2022-08-02T23:19:40.521Z,68.76
2022-08-02T23:21:46.339Z,69.15
2022-08-02T23:23:43.095Z,69.75
2022-08-02T23:25:44.111Z,70.57
2022-08-02T23:27:49.667Z,71.21
2022-08-02T23:29:46.596Z,71.31
2022-08-02T23:33:58.426Z,71.41
2022-08-02T23:35:50.326Z,71.49
2022-08-02T23:37:58.404Z,71.3
2022-08-02T23:39:53.590Z,70.98
2022-08-02T23:44:12.295Z,71.98
2022-08-02T23:45:57.622Z,72.4
2022-08-02T23:47:58.598Z,72.91
2022-08-02T23:49:59.570Z,73.13
2022-08-02T23:52:02.075Z,73.36
2022-08-02T23:54:02.563Z,73.68
2022-08-02T23:56:04.289Z,73.98
2022-08-02T23:58:05.920Z,73.73
